Time;durP1;ratioP1;P1;durP2;ratioP2;P2;SDS_P1;SDS_P2;PMS_P1;PMS_P2;Temp;Humidity;BMP_temperature;BMP_pressure;BME280_temperature;BME280_humidity;BME280_pressure;Samples;Min_cycle;Max_cycle;Signal;HPM_P1;HPM_P2
2023/07/28 00:02:04;;;;;;;2.67;1.95;;;19.60;99.90;;;;;;7390257;19;20142;-78
2023/07/28 00:04:30;;;;;;;2.35;1.88;;;19.60;99.90;;;;;;7389057;19;20142;-78
2023/07/28 00:06:55;;;;;;;2.80;1.80;;;19.60;99.90;;;;;;7390299;19;20206;-76
2023/07/28 00:09:23;;;;;;;1.77;1.50;;;19.60;99.90;;;;;;7386939;19;20495;-77
2023/07/28 00:11:49;;;;;;;2.72;1.75;;;19.60;99.90;;;;;;7389239;19;20130;-77
2023/07/28 00:14:15;;;;;;;3.75;1.70;;;19.60;99.90;;;;;;7391087;19;20155;-78
2023/07/28 00:16:40;;;;;;;3.90;2.08;;;19.60;99.90;;;;;;7389553;19;20133;-77
2023/07/28 00:19:06;;;;;;;4.05;2.08;;;19.60;99.90;;;;;;7389036;19;20135;-77
2023/07/28 00:21:32;;;;;;;2.90;1.73;;;19.50;99.90;;;;;;7390167;19;20126;-77
2023/07/28 00:23:58;;;;;;;1.98;1.60;;;19.50;99.90;;;;;;7391701;19;20127;-78
2023/07/28 00:26:23;;;;;;;2.92;1.70;;;19.50;99.90;;;;;;7386448;19;20181;-77
2023/07/28 00:28:49;;;;;;;3.90;1.75;;;19.40;99.90;;;;;;7386893;19;20138;-77
2023/07/28 00:31:15;;;;;;;3.90;1.70;;;19.50;99.90;;;;;;7388704;19;20135;-77
2023/07/28 00:33:41;;;;;;;3.45;1.70;;;19.40;99.90;;;;;;7389017;19;20143;-77
2023/07/28 00:36:07;;;;;;;3.10;1.50;;;19.50;99.90;;;;;;7391480;19;20595;-77
2023/07/28 00:38:33;;;;;;;2.05;1.58;;;19.30;99.90;;;;;;7387172;19;20158;-77
2023/07/28 00:40:59;;;;;;;2.45;1.92;;;19.30;99.90;;;;;;7388821;19;20135;-77
2023/07/28 00:43:25;;;;;;;1.95;1.75;;;19.40;99.90;;;;;;7386838;19;20142;-77
2023/07/28 00:45:51;;;;;;;2.60;1.80;;;19.50;99.90;;;;;;7389944;19;20134;-77
2023/07/28 00:48:17;;;;;;;3.03;1.73;;;19.60;99.90;;;;;;7388079;19;20582;-77
2023/07/28 00:50:48;;;;;;;1.70;1.60;;;19.70;99.90;;;;;;7389097;19;20168;-77
2023/07/28 00:53:14;;;;;;;2.60;1.75;;;19.70;99.90;;;;;;7390291;19;20149;-76
2023/07/28 00:55:41;;;;;;;3.00;1.70;;;19.50;99.90;;;;;;7391820;19;20482;-77
2023/07/28 00:58:08;;;;;;;2.75;1.80;;;19.50;99.90;;;;;;7389585;19;20137;-76
2023/07/28 01:00:34;;;;;;;1.65;1.55;;;19.40;99.90;;;;;;7388136;19;20135;-77
2023/07/28 01:03:00;;;;;;;2.17;1.65;;;19.30;99.90;;;;;;7389807;19;20485;-77
2023/07/28 01:05:37;;;;;;;2.63;1.55;;;19.30;99.90;;;;;;7389332;19;20316;-77
2023/07/28 01:08:28;;;;;;;2.60;1.90;;;19.20;99.90;;;;;;7388390;19;20143;-77
2023/07/28 01:10:54;;;;;;;1.90;1.70;;;19.20;99.90;;;;;;7387015;19;20214;-77
2023/07/28 01:13:20;;;;;;;2.20;1.42;;;19.20;99.90;;;;;;7389214;19;20145;-77
2023/07/28 01:15:47;;;;;;;2.40;1.63;;;19.30;99.90;;;;;;7387701;19;20130;-77
2023/07/28 01:18:13;;;;;;;2.22;1.73;;;19.40;99.90;;;;;;7389978;19;20230;-77
2023/07/28 01:20:40;;;;;;;1.92;1.50;;;19.30;99.90;;;;;;7387884;19;20462;-77
2023/07/28 01:23:13;;;;;;;3.28;1.58;;;19.20;99.90;;;;;;7386544;19;20556;-77
2023/07/28 01:25:46;;;;;;;2.33;1.73;;;19.20;99.90;;;;;;7390199;19;20153;-78
2023/07/28 01:28:13;;;;;;;2.10;1.60;;;19.20;99.90;;;;;;7387451;19;20205;-76
2023/07/28 01:30:39;;;;;;;1.88;1.67;;;19.20;99.90;;;;;;7387160;19;20134;-77
2023/07/28 01:33:08;;;;;;;2.28;1.45;;;19.20;99.90;;;;;;7388860;19;20150;-76
2023/07/28 01:35:37;;;;;;;1.63;1.40;;;19.10;99.90;;;;;;7387272;19;20134;-77
2023/07/28 01:38:03;;;;;;;1.75;1.65;;;19.00;99.90;;;;;;7386617;19;20146;-77
2023/07/28 01:40:29;;;;;;;1.77;1.58;;;19.00;99.90;;;;;;7386416;19;20150;-77
2023/07/28 01:42:55;;;;;;;2.20;1.50;;;19.00;99.90;;;;;;7387347;19;20131;-77
2023/07/28 01:45:20;;;;;;;1.35;1.25;;;19.10;99.90;;;;;;7386854;19;20594;-77
2023/07/28 01:47:46;;;;;;;2.00;1.80;;;19.20;99.90;;;;;;7385547;19;20547;-77
2023/07/28 01:50:12;;;;;;;2.75;1.45;;;19.30;99.90;;;;;;7383725;19;20151;-77
2023/07/28 01:52:37;;;;;;;2.65;1.42;;;19.30;99.90;;;;;;7388319;19;20161;-77
2023/07/28 01:55:04;;;;;;;2.58;1.60;;;19.40;99.90;;;;;;7387572;19;20157;-78
2023/07/28 01:57:33;;;;;;;2.08;1.70;;;19.40;99.90;;;;;;7387302;19;20138;-77
2023/07/28 01:59:59;;;;;;;2.20;1.58;;;19.40;99.90;;;;;;7387692;19;20134;-78
2023/07/28 02:02:25;;;;;;;1.65;1.50;;;19.20;99.90;;;;;;7387004;19;20165;-76
2023/07/28 02:04:51;;;;;;;3.35;1.83;;;18.90;99.90;;;;;;7386998;19;20138;-78
2023/07/28 02:07:17;;;;;;;2.42;1.60;;;18.60;99.90;;;;;;7386115;19;20620;-76
2023/07/28 02:09:43;;;;;;;2.35;1.40;;;18.40;99.90;;;;;;7384476;19;20222;-76
2023/07/28 02:12:09;;;;;;;2.72;1.38;;;18.50;99.90;;;;;;7387297;19;20147;-77
2023/07/28 02:14:35;;;;;;;3.33;1.75;;;18.50;99.90;;;;;;7387680;19;20164;-76
2023/07/28 02:17:00;;;;;;;1.73;1.40;;;18.50;99.90;;;;;;7384995;19;20538;-77
2023/07/28 02:19:26;;;;;;;1.70;1.40;;;18.60;99.90;;;;;;7384680;19;20594;-76
2023/07/28 02:21:52;;;;;;;2.65;1.40;;;18.50;99.90;;;;;;7385302;19;20606;-77
2023/07/28 02:24:18;;;;;;;2.15;1.80;;;18.70;99.90;;;;;;7370676;19;20163;-76
2023/07/28 02:26:44;;;;;;;1.73;1.55;;;18.80;99.90;;;;;;7381110;19;20225;-79
2023/07/28 02:29:09;;;;;;;3.33;1.70;;;18.70;99.90;;;;;;7381720;19;20138;-76
2023/07/28 02:31:35;;;;;;;4.00;1.60;;;18.60;99.90;;;;;;7386152;19;20155;-76
2023/07/28 02:34:01;;;;;;;1.38;1.27;;;18.50;99.90;;;;;;7387020;19;20160;-76
2023/07/28 02:36:26;;;;;;;2.55;1.55;;;18.50;99.90;;;;;;7387400;19;20152;-76
2023/07/28 02:38:52;;;;;;;2.55;1.33;;;18.40;99.90;;;;;;7386289;19;20130;-77
2023/07/28 02:41:18;;;;;;;1.92;1.50;;;18.50;99.90;;;;;;7384571;19;20152;-77
2023/07/28 02:43:45;;;;;;;1.80;1.40;;;18.40;99.90;;;;;;7383842;19;20151;-77
2023/07/28 02:46:11;;;;;;;3.58;1.70;;;18.60;99.90;;;;;;7383551;19;20143;-77
2023/07/28 02:48:37;;;;;;;1.73;1.60;;;18.60;99.90;;;;;;7383723;19;20174;-76
2023/07/28 02:51:02;;;;;;;3.03;1.80;;;19.00;99.90;;;;;;7383682;19;20141;-77
2023/07/28 02:53:28;;;;;;;1.98;1.52;;;19.10;99.90;;;;;;7385671;19;20135;-77
2023/07/28 02:55:56;;;;;;;3.17;2.20;;;19.20;99.90;;;;;;7385150;19;20142;-76
2023/07/28 02:58:21;;;;;;;1.90;1.65;;;19.20;99.90;;;;;;7383424;19;20221;-76
2023/07/28 03:00:47;;;;;;;2.42;2.08;;;19.30;99.90;;;;;;7386630;19;20542;-76
2023/07/28 03:03:13;;;;;;;3.55;2.00;;;19.30;99.90;;;;;;7383511;19;20146;-76
2023/07/28 03:05:39;;;;;;;2.38;2.00;;;19.30;99.90;;;;;;7388685;19;20148;-76
2023/07/28 03:08:06;;;;;;;4.50;2.50;;;19.30;99.90;;;;;;7384939;19;20661;-75
2023/07/28 03:10:32;;;;;;;4.53;2.30;;;19.30;99.90;;;;;;7383654;19;20534;-75
2023/07/28 03:12:58;;;;;;;3.20;2.47;;;19.30;99.90;;;;;;7386183;19;20218;-75
2023/07/28 03:15:24;;;;;;;2.97;2.47;;;19.30;99.90;;;;;;7386134;19;20126;-76
2023/07/28 03:17:50;;;;;;;2.85;2.38;;;19.20;99.90;;;;;;7382639;19;20127;-74
2023/07/28 03:20:16;;;;;;;2.67;2.30;;;19.20;99.90;;;;;;7384194;19;20501;-75
2023/07/28 03:22:43;;;;;;;3.60;2.30;;;19.10;99.90;;;;;;7384510;19;20583;-75
2023/07/28 03:25:09;;;;;;;2.85;2.35;;;19.20;99.90;;;;;;7384455;19;20146;-76
2023/07/28 03:27:35;;;;;;;4.22;2.58;;;19.30;99.90;;;;;;7384983;19;20150;-76
2023/07/28 03:30:01;;;;;;;3.22;2.60;;;19.20;99.90;;;;;;7380517;19;20139;-76
2023/07/28 03:32:27;;;;;;;4.65;2.35;;;19.20;99.90;;;;;;7383168;19;20176;-76
2023/07/28 03:34:52;;;;;;;2.80;2.28;;;19.20;99.90;;;;;;7385302;19;20154;-76
2023/07/28 03:37:19;;;;;;;2.53;2.33;;;19.30;99.90;;;;;;7383848;19;20146;-76
2023/07/28 03:39:44;;;;;;;3.20;2.17;;;19.30;99.90;;;;;;7379184;19;20166;-76
2023/07/28 03:42:10;;;;;;;3.97;2.75;;;19.30;99.90;;;;;;7381271;19;20138;-76
2023/07/28 03:44:41;;;;;;;2.65;2.35;;;19.30;99.90;;;;;;7384924;19;20214;-76
2023/07/28 03:47:07;;;;;;;3.33;2.40;;;19.20;99.90;;;;;;7382761;19;20157;-76
2023/07/28 03:49:33;;;;;;;2.47;2.15;;;19.00;99.90;;;;;;7381057;19;20155;-76
2023/07/28 03:51:59;;;;;;;2.75;1.80;;;18.90;99.90;;;;;;7383177;19;20255;-75
2023/07/28 03:54:25;;;;;;;2.17;1.98;;;18.80;99.90;;;;;;7383363;19;20598;-75
2023/07/28 03:56:51;;;;;;;4.78;2.00;;;18.70;99.90;;;;;;7382829;19;20139;-75
2023/07/28 03:59:17;;;;;;;3.15;1.70;;;18.70;99.90;;;;;;7382848;19;20127;-75
2023/07/28 04:01:42;;;;;;;1.75;1.58;;;18.80;99.90;;;;;;7385859;19;20173;-75
2023/07/28 04:04:08;;;;;;;1.80;1.60;;;18.90;99.90;;;;;;7381424;19;20157;-75
2023/07/28 04:06:53;;;;;;;3.45;1.75;;;18.90;99.90;;;;;;7386102;19;20177;-75
2023/07/28 04:09:19;;;;;;;2.50;1.73;;;18.90;99.90;;;;;;7388639;19;20142;-75
2023/07/28 04:11:45;;;;;;;3.10;1.85;;;19.00;99.90;;;;;;7390043;19;20146;-75
2023/07/28 04:14:11;;;;;;;2.03;1.70;;;18.90;99.90;;;;;;7391833;19;20138;-75
2023/07/28 04:16:37;;;;;;;3.85;1.90;;;18.90;99.90;;;;;;7391657;19;20172;-75
2023/07/28 04:19:03;;;;;;;3.10;1.90;;;19.10;99.90;;;;;;7388063;19;20161;-75
2023/07/28 04:21:29;;;;;;;2.15;1.73;;;19.10;99.90;;;;;;7388410;19;20594;-74
2023/07/28 04:23:55;;;;;;;3.90;1.95;;;19.10;99.90;;;;;;7389160;19;20158;-75
2023/07/28 04:26:23;;;;;;;2.05;1.58;;;19.20;99.90;;;;;;7387008;19;20508;-76
2023/07/28 04:28:48;;;;;;;2.55;1.50;;;19.20;99.90;;;;;;7388739;19;20147;-75
2023/07/28 04:31:14;;;;;;;2.22;1.63;;;19.30;99.90;;;;;;7388505;19;20586;-75
2023/07/28 04:33:43;;;;;;;2.00;1.65;;;19.30;99.90;;;;;;7391194;19;20130;-75
2023/07/28 04:36:09;;;;;;;1.45;1.27;;;19.30;99.90;;;;;;7389174;19;20164;-76
2023/07/28 04:38:35;;;;;;;1.85;1.60;;;19.40;99.90;;;;;;7389573;19;20144;-75
2023/07/28 04:41:01;;;;;;;2.50;1.70;;;19.50;99.90;;;;;;7388049;19;20150;-75
2023/07/28 04:43:28;;;;;;;2.25;2.05;;;19.50;99.90;;;;;;7390228;19;20131;-75
2023/07/28 04:45:53;;;;;;;3.45;2.90;;;19.40;99.90;;;;;;7387522;19;20205;-75
2023/07/28 04:48:19;;;;;;;5.60;2.33;;;19.50;99.90;;;;;;7387735;19;20166;-75
2023/07/28 04:50:45;;;;;;;3.28;2.22;;;19.60;99.90;;;;;;7385677;19;20138;-75
2023/07/28 04:53:11;;;;;;;3.25;1.92;;;19.60;99.90;;;;;;7391221;19;20248;-76
2023/07/28 04:55:37;;;;;;;2.63;2.00;;;19.60;99.90;;;;;;7389495;19;20482;-74
2023/07/28 04:58:02;;;;;;;3.38;2.05;;;19.60;99.90;;;;;;7390461;19;20159;-75
2023/07/28 05:00:28;;;;;;;3.15;1.90;;;19.50;99.90;;;;;;7389164;19;20164;-75
2023/07/28 05:02:54;;;;;;;3.83;2.50;;;19.60;99.90;;;;;;7389134;19;20143;-75
2023/07/28 05:05:20;;;;;;;3.58;2.40;;;19.70;99.90;;;;;;7388817;19;20137;-75
2023/07/28 05:07:46;;;;;;;3.33;2.42;;;19.70;99.90;;;;;;7387237;19;20142;-76
2023/07/28 05:10:14;;;;;;;5.82;3.47;;;19.70;99.90;;;;;;7387931;19;20138;-75
2023/07/28 05:12:40;;;;;;;5.95;2.85;;;19.70;99.90;;;;;;7390967;19;20148;-76
2023/07/28 05:15:10;;;;;;;4.07;2.67;;;19.70;99.90;;;;;;7386445;19;20206;-75
2023/07/28 05:17:36;;;;;;;3.65;2.63;;;19.60;99.90;;;;;;7388445;19;20135;-74
2023/07/28 05:20:03;;;;;;;3.47;2.47;;;19.60;99.90;;;;;;7383041;19;20155;-76
2023/07/28 05:22:29;;;;;;;3.53;2.42;;;19.40;99.90;;;;;;7389242;19;20138;-76
2023/07/28 05:24:54;;;;;;;5.20;2.80;;;19.20;99.90;;;;;;7386884;19;20137;-76
2023/07/28 05:27:20;;;;;;;3.72;2.13;;;19.30;99.90;;;;;;7388763;19;20138;-76
2023/07/28 05:29:46;;;;;;;3.38;2.53;;;19.40;99.90;;;;;;7383306;19;20548;-75
2023/07/28 05:32:12;;;;;;;7.78;2.70;;;19.50;99.90;;;;;;7385846;19;20149;-74
2023/07/28 05:34:38;;;;;;;3.45;2.30;;;19.40;99.90;;;;;;7387630;19;21618;-75
2023/07/28 05:37:04;;;;;;;4.90;3.08;;;19.30;99.90;;;;;;7385933;19;20154;-77
2023/07/28 05:39:30;;;;;;;2.65;2.28;;;19.30;99.90;;;;;;7386016;19;20146;-76
2023/07/28 05:41:55;;;;;;;4.75;2.88;;;19.20;99.90;;;;;;7385062;19;20517;-75
2023/07/28 05:44:21;;;;;;;3.00;2.67;;;19.20;99.90;;;;;;7386714;19;20130;-75
2023/07/28 05:46:48;;;;;;;3.70;2.90;;;19.40;99.90;;;;;;7388765;19;20138;-78
2023/07/28 05:49:14;;;;;;;5.82;2.83;;;19.50;99.90;;;;;;7385261;19;20161;-77
2023/07/28 05:52:03;;;;;;;3.58;2.78;;;19.50;99.90;;;;;;7387004;19;20138;-81
2023/07/28 05:54:32;;;;;;;5.10;2.42;;;19.60;99.90;;;;;;7386727;19;20177;-77
2023/07/28 05:56:58;;;;;;;5.30;2.60;;;19.60;99.90;;;;;;7389046;19;20584;-78
2023/07/28 05:59:23;;;;;;;5.25;2.88;;;19.60;99.90;;;;;;7388138;19;20141;-76
2023/07/28 06:01:49;;;;;;;2.80;2.38;;;19.60;99.90;;;;;;7386693;19;20150;-77
2023/07/28 06:04:15;;;;;;;3.55;2.55;;;19.60;99.90;;;;;;7386928;19;20139;-76
2023/07/28 06:06:40;;;;;;;4.47;2.78;;;19.50;99.90;;;;;;7387142;19;20158;-77
2023/07/28 06:09:06;;;;;;;3.58;2.28;;;19.40;99.90;;;;;;7383658;19;20542;-79
2023/07/28 06:11:32;;;;;;;3.60;2.45;;;19.50;99.90;;;;;;7389192;19;20468;-79
2023/07/28 06:13:58;;;;;;;2.80;2.42;;;19.60;99.90;;;;;;7386107;19;20149;-77
2023/07/28 06:16:24;;;;;;;2.80;2.50;;;19.50;99.90;;;;;;7382295;19;20138;-76
2023/07/28 06:18:50;;;;;;;2.53;2.33;;;19.40;99.90;;;;;;7383777;19;20134;-77
2023/07/28 06:21:16;;;;;;;3.97;3.22;;;19.50;99.90;;;;;;7384645;19;20177;-78
2023/07/28 06:23:41;;;;;;;5.35;4.05;;;19.50;99.90;;;;;;7385795;19;20613;-77
2023/07/28 06:26:07;;;;;;;6.55;4.47;;;19.40;99.90;;;;;;7384241;19;20153;-80
2023/07/28 06:28:33;;;;;;;5.25;3.30;;;19.50;99.90;;;;;;7385417;19;20147;-81
2023/07/28 06:30:58;;;;;;;3.92;2.75;;;19.40;99.90;;;;;;7385548;19;20147;-79
2023/07/28 06:33:28;;;;;;;5.20;2.90;;;19.50;99.90;;;;;;7386142;19;20621;-78
2023/07/28 06:35:54;;;;;;;3.83;2.60;;;19.60;99.90;;;;;;7387198;19;20185;-78
2023/07/28 06:38:20;;;;;;;3.42;2.40;;;19.60;99.90;;;;;;7388061;19;20578;-78
2023/07/28 06:40:46;;;;;;;4.47;2.60;;;19.60;99.90;;;;;;7386524;19;20169;-77
2023/07/28 06:43:12;;;;;;;6.45;2.95;;;19.60;99.90;;;;;;7384637;19;20206;-79
2023/07/28 06:45:38;;;;;;;6.18;3.00;;;19.60;99.90;;;;;;7387545;19;20142;-79
2023/07/28 06:48:04;;;;;;;8.52;3.50;;;19.70;99.90;;;;;;7383563;19;20138;-79
2023/07/28 06:50:30;;;;;;;12.38;4.63;;;19.70;99.90;;;;;;7381741;19;20126;-79
2023/07/28 06:52:56;;;;;;;11.10;5.05;;;19.60;99.90;;;;;;7388097;19;20201;-79
2023/07/28 06:55:23;;;;;;;6.32;3.53;;;19.40;99.90;;;;;;7384243;19;20114;-79
2023/07/28 06:57:49;;;;;;;6.00;3.10;;;19.50;99.90;;;;;;7385810;19;20451;-77
2023/07/28 07:00:15;;;;;;;6.82;2.95;;;19.70;99.90;;;;;;7384950;19;20129;-76
2023/07/28 07:02:41;;;;;;;6.07;2.60;;;19.80;99.90;;;;;;7382411;19;21155;-76
2023/07/28 07:05:07;;;;;;;5.72;3.05;;;19.80;99.90;;;;;;7385481;19;20153;-77
2023/07/28 07:07:33;;;;;;;3.45;2.83;;;19.90;99.90;;;;;;7386123;19;20135;-78
2023/07/28 07:09:59;;;;;;;2.67;2.47;;;20.00;99.90;;;;;;7384054;19;20246;-78
2023/07/28 07:12:25;;;;;;;3.90;2.55;;;20.00;99.90;;;;;;7384086;19;20157;-77
2023/07/28 07:14:51;;;;;;;4.78;2.88;;;20.00;99.90;;;;;;7383844;19;20135;-78
2023/07/28 07:17:17;;;;;;;2.83;2.45;;;20.00;99.90;;;;;;7385632;19;20589;-78
2023/07/28 07:19:43;;;;;;;2.65;2.30;;;20.10;99.90;;;;;;7383259;19;20146;-78
2023/07/28 07:22:09;;;;;;;4.97;2.80;;;20.10;99.90;;;;;;7381071;19;20583;-77
2023/07/28 07:24:35;;;;;;;4.03;2.72;;;20.10;99.90;;;;;;7383851;19;20138;-78
2023/07/28 07:27:01;;;;;;;4.88;2.30;;;20.00;99.90;;;;;;7383055;19;20641;-77
2023/07/28 07:29:26;;;;;;;6.20;3.10;;;19.80;99.90;;;;;;7381877;19;20131;-78
2023/07/28 07:31:55;;;;;;;3.67;2.35;;;19.90;99.90;;;;;;7385162;19;20169;-76
2023/07/28 07:34:22;;;;;;;3.70;2.58;;;20.10;99.90;;;;;;7386075;19;20146;-79
2023/07/28 07:36:47;;;;;;;4.57;2.78;;;20.20;99.90;;;;;;7385705;19;20138;-79
2023/07/28 07:39:13;;;;;;;3.03;2.60;;;20.30;99.90;;;;;;7384059;19;20733;-78
2023/07/28 07:41:39;;;;;;;4.13;2.00;;;20.40;99.90;;;;;;7388536;19;20196;-77
2023/07/28 07:44:05;;;;;;;3.38;2.25;;;20.50;99.90;;;;;;7391278;19;20142;-78
2023/07/28 07:46:30;;;;;;;3.05;2.40;;;20.60;99.90;;;;;;7393010;19;20214;-76
2023/07/28 07:48:57;;;;;;;2.70;2.40;;;20.70;99.90;;;;;;7390270;19;20213;-76
2023/07/28 07:51:23;;;;;;;3.95;2.25;;;20.80;99.90;;;;;;7390543;19;20184;-76
2023/07/28 07:53:49;;;;;;;5.50;2.28;;;20.90;99.90;;;;;;7390661;19;20501;-77
2023/07/28 07:56:15;;;;;;;3.03;2.40;;;20.80;99.90;;;;;;7387849;19;20143;-76
2023/07/28 07:58:40;;;;;;;4.32;2.20;;;20.80;99.90;;;;;;7389146;19;20199;-78
2023/07/28 08:01:06;;;;;;;3.08;2.33;;;20.70;99.90;;;;;;7389429;19;20487;-77
2023/07/28 08:03:32;;;;;;;4.20;2.53;;;20.70;99.90;;;;;;7385947;19;20486;-77
2023/07/28 08:05:58;;;;;;;3.10;2.00;;;20.80;99.90;;;;;;7389064;19;20154;-76
2023/07/28 08:08:24;;;;;;;4.28;2.42;;;20.70;99.90;;;;;;7387610;19;20165;-77
2023/07/28 08:10:50;;;;;;;3.38;2.75;;;20.80;99.90;;;;;;7384147;19;20449;-76
2023/07/28 08:13:16;;;;;;;3.55;2.63;;;20.90;99.90;;;;;;7384022;19;20142;-76
2023/07/28 08:15:46;;;;;;;4.00;2.78;;;20.90;99.90;;;;;;7389048;19;20501;-77
2023/07/28 08:18:15;;;;;;;3.60;2.65;;;20.90;99.90;;;;;;7386356;19;20245;-76
2023/07/28 08:20:41;;;;;;;4.15;2.75;;;20.80;99.90;;;;;;7385355;19;20157;-78
2023/07/28 08:23:07;;;;;;;3.35;2.70;;;20.70;99.90;;;;;;7385953;19;20138;-77
2023/07/28 08:25:34;;;;;;;10.38;3.55;;;20.60;99.90;;;;;;7385581;19;20509;-77
2023/07/28 08:28:00;;;;;;;5.63;3.47;;;20.60;99.90;;;;;;7383296;19;20138;-76
2023/07/28 08:30:26;;;;;;;3.80;2.97;;;20.60;99.90;;;;;;7387383;19;20138;-76
2023/07/28 08:32:52;;;;;;;4.32;3.15;;;20.50;99.90;;;;;;7385416;19;20164;-77
2023/07/28 08:35:18;;;;;;;6.25;2.83;;;20.50;99.90;;;;;;7392849;19;20155;-77
2023/07/28 08:37:43;;;;;;;4.15;3.17;;;20.40;99.90;;;;;;7388108;19;20467;-77
2023/07/28 08:40:11;;;;;;;3.28;2.97;;;20.60;99.90;;;;;;7387456;19;20134;-77
2023/07/28 08:42:40;;;;;;;4.32;2.67;;;20.80;99.90;;;;;;7389914;19;20218;-78
2023/07/28 08:45:08;;;;;;;4.63;3.15;;;20.90;99.90;;;;;;7393828;19;20138;-79
2023/07/28 08:47:35;;;;;;;5.53;3.28;;;20.90;99.90;;;;;;7398805;19;20145;-77
2023/07/28 08:50:05;;;;;;;5.05;3.97;;;21.00;99.90;;;;;;7398273;19;20161;-78
2023/07/28 08:52:32;;;;;;;4.55;3.53;;;21.00;99.90;;;;;;7393634;19;20624;-76
2023/07/28 08:54:58;;;;;;;6.53;2.90;;;20.90;99.90;;;;;;7391310;19;20157;-75
2023/07/28 08:57:27;;;;;;;9.95;7.05;;;21.00;99.90;;;;;;7389499;19;20146;-77
2023/07/28 08:59:54;;;;;;;6.15;4.10;;;21.20;99.90;;;;;;7389471;19;20157;-77
2023/07/28 09:02:20;;;;;;;5.13;4.18;;;21.30;99.90;;;;;;7388600;19;20154;-77
2023/07/28 09:04:48;;;;;;;4.70;3.72;;;21.20;99.90;;;;;;7389668;19;20166;-77
2023/07/28 09:07:14;;;;;;;7.63;4.15;;;21.20;99.90;;;;;;7389435;19;20146;-78
2023/07/28 09:09:40;;;;;;;6.53;3.10;;;21.30;99.90;;;;;;7387529;19;20147;-78
2023/07/28 09:12:09;;;;;;;3.80;2.90;;;21.20;99.90;;;;;;7389140;19;20135;-78
2023/07/28 09:14:37;;;;;;;5.20;2.97;;;21.20;99.90;;;;;;7390298;19;20139;-77
2023/07/28 09:17:10;;;;;;;6.30;3.72;;;21.20;99.90;;;;;;7389948;19;20165;-78
2023/07/28 09:19:55;;;;;;;4.65;3.00;;;21.20;99.90;;;;;;7387795;19;20147;-78
2023/07/28 09:22:22;;;;;;;2.83;2.53;;;21.20;99.90;;;;;;7386698;19;20146;-77
2023/07/28 09:24:48;;;;;;;4.90;2.90;;;21.10;99.90;;;;;;7387385;19;20142;-80
2023/07/28 09:27:24;;;;;;;6.40;3.92;;;21.10;99.90;;;;;;7389073;19;20170;-78
2023/07/28 09:29:51;;;;;;;9.20;4.30;;;21.10;99.90;;;;;;7390311;19;20134;-77
2023/07/28 09:32:32;;;;;;;7.05;3.40;;;21.20;99.90;;;;;;7392645;19;20523;-78
2023/07/28 09:35:12;;;;;;;7.03;3.95;;;21.10;99.90;;;;;;7390384;19;20230;-77
2023/07/28 09:37:40;;;;;;;5.68;3.85;;;21.10;99.90;;;;;;7390439;19;20142;-78
2023/07/28 09:40:12;;;;;;;4.95;3.60;;;21.30;99.90;;;;;;7386650;19;20151;-79
2023/07/28 09:42:42;;;;;;;6.10;3.42;;;21.30;99.90;;;;;;7390954;19;20213;-78
2023/07/28 09:45:11;;;;;;;6.00;3.97;;;21.40;99.90;;;;;;7388917;19;20519;-79
2023/07/28 09:47:38;;;;;;;6.38;4.22;;;21.50;99.90;;;;;;7389671;19;21035;-79
2023/07/28 09:50:05;;;;;;;5.50;3.75;;;21.50;99.90;;;;;;7386405;19;20169;-78
2023/07/28 09:52:40;;;;;;;5.28;3.58;;;21.70;99.90;;;;;;7387678;19;20154;-78
2023/07/28 09:55:10;;;;;;;4.07;3.03;;;21.80;99.90;;;;;;7388645;19;20138;-78
2023/07/28 09:57:45;;;;;;;6.22;3.55;;;21.90;99.90;;;;;;7387629;19;20230;-78
2023/07/28 10:00:13;;;;;;;3.47;2.85;;;21.80;99.90;;;;;;7387930;19;20145;-79
2023/07/28 10:02:39;;;;;;;4.90;2.58;;;21.90;99.90;;;;;;7386559;19;20143;-79
2023/07/28 10:05:10;;;;;;;4.72;2.75;;;21.90;99.90;;;;;;7384940;19;20157;-78
2023/07/28 10:07:41;;;;;;;5.65;2.53;;;21.80;99.90;;;;;;7386287;19;20230;-78
2023/07/28 10:10:12;;;;;;;4.88;3.08;;;21.70;99.90;;;;;;7383494;19;20150;-78
2023/07/28 10:12:51;;;;;;;3.78;2.88;;;21.70;99.90;;;;;;7384062;19;20136;-78
2023/07/28 10:15:27;;;;;;;3.22;2.20;;;21.80;99.90;;;;;;7384454;19;20134;-77
2023/07/28 10:17:58;;;;;;;3.38;2.10;;;21.90;99.90;;;;;;7385637;19;20153;-76
2023/07/28 10:20:28;;;;;;;14.73;11.52;;;21.90;99.90;;;;;;7387420;19;20174;-77
2023/07/28 10:23:07;;;;;;;6.53;3.45;;;21.80;99.90;;;;;;7386651;19;20142;-75
2023/07/28 10:25:35;;;;;;;3.78;2.50;;;21.90;99.90;;;;;;7385932;19;20154;-76
2023/07/28 10:28:02;;;;;;;3.92;2.22;;;21.90;99.90;;;;;;7384182;19;20137;-76
2023/07/28 10:30:28;;;;;;;3.78;2.30;;;22.00;99.90;;;;;;7385193;19;20150;-78
2023/07/28 10:32:55;;;;;;;2.85;1.90;;;21.90;99.90;;;;;;7383844;19;20580;-79
2023/07/28 10:35:26;;;;;;;4.25;2.33;;;21.70;99.90;;;;;;7385556;19;20514;-79
2023/07/28 10:37:56;;;;;;;3.42;1.67;;;21.80;99.90;;;;;;7387362;19;20135;-77
2023/07/28 10:40:32;;;;;;;3.10;1.95;;;21.70;99.90;;;;;;7384722;19;20611;-77
2023/07/28 10:42:58;;;;;;;3.85;2.00;;;21.80;99.90;;;;;;7388133;19;20598;-78
2023/07/28 10:45:27;;;;;;;3.92;2.22;;;22.00;99.90;;;;;;7387657;19;20133;-76
2023/07/28 10:48:00;;;;;;;2.88;2.38;;;22.10;99.90;;;;;;7384062;19;20147;-77
2023/07/28 10:50:32;;;;;;;2.20;1.90;;;22.10;99.90;;;;;;7385211;19;20138;-78
2023/07/28 10:52:58;;;;;;;2.80;2.03;;;22.00;99.90;;;;;;7384904;19;20609;-77
2023/07/28 10:55:26;;;;;;;2.35;1.65;;;22.00;99.90;;;;;;7386298;19;20167;-77
2023/07/28 10:57:53;;;;;;;2.45;1.90;;;21.90;99.90;;;;;;7384189;19;20162;-76
2023/07/28 11:00:21;;;;;;;2.22;2.03;;;21.90;99.90;;;;;;7384773;19;20138;-76
2023/07/28 11:02:52;;;;;;;4.97;2.20;;;22.00;99.90;;;;;;7382559;19;20170;-77
2023/07/28 11:05:26;;;;;;;2.88;2.30;;;22.30;99.90;;;;;;7376346;19;20138;-77
2023/07/28 11:07:55;;;;;;;3.95;2.17;;;22.40;99.90;;;;;;7374943;19;20141;-77
2023/07/28 11:10:21;;;;;;;2.20;1.90;;;22.50;99.90;;;;;;7381409;19;20146;-75
2023/07/28 11:12:50;;;;;;;2.85;2.08;;;22.60;99.90;;;;;;7387247;19;20150;-76
2023/07/28 11:15:17;;;;;;;2.95;1.80;;;22.60;99.90;;;;;;7385857;19;20537;-77
2023/07/28 11:17:46;;;;;;;2.85;1.98;;;22.70;99.90;;;;;;7386563;19;20165;-77
2023/07/28 11:20:19;;;;;;;3.03;2.40;;;22.80;99.90;;;;;;7385343;19;21600;-77
2023/07/28 11:22:47;;;;;;;3.08;2.35;;;22.80;99.90;;;;;;7383572;19;20147;-77
2023/07/28 11:25:13;;;;;;;1.63;1.52;;;22.90;99.90;;;;;;7386982;19;20134;-74
2023/07/28 11:27:39;;;;;;;2.10;1.70;;;22.90;99.90;;;;;;7385027;19;20139;-77
2023/07/28 11:30:09;;;;;;;1.70;1.60;;;23.00;99.90;;;;;;7384126;19;20134;-77
2023/07/28 11:32:36;;;;;;;3.20;2.25;;;23.10;99.90;;;;;;7373703;19;20153;-77
2023/07/28 11:35:09;;;;;;;1.63;1.33;;;23.10;99.90;;;;;;7384574;19;20221;-77
2023/07/28 11:37:37;;;;;;;2.92;0.93;;;23.30;99.90;;;;;;7373812;19;20160;-78
2023/07/28 11:40:08;;;;;;;4.40;1.05;;;23.20;99.90;;;;;;7375213;19;20138;-75
2023/07/28 11:42:54;;;;;;;1.42;1.17;;;23.30;99.90;;;;;;7381400;19;20168;-77
2023/07/28 11:45:22;;;;;;;2.25;1.55;;;23.40;99.90;;;;;;7373442;19;20233;-77
2023/07/28 11:47:54;;;;;;;1.58;1.20;;;23.40;99.90;;;;;;7375023;19;20153;-77
2023/07/28 11:50:25;;;;;;;2.00;1.00;;;23.40;99.90;;;;;;7382750;19;20154;-77
2023/07/28 11:52:51;;;;;;;1.00;0.80;;;23.60;99.90;;;;;;7371063;19;20161;-76
2023/07/28 11:55:18;;;;;;;0.98;0.98;;;23.60;99.90;;;;;;7376746;19;20147;-77
2023/07/28 11:57:44;;;;;;;1.55;1.35;;;23.50;99.90;;;;;;7377874;19;20137;-76
2023/07/28 12:00:12;;;;;;;1.40;1.10;;;23.50;99.90;;;;;;7367965;19;20155;-77
2023/07/28 12:02:38;;;;;;;1.65;0.95;;;23.60;99.90;;;;;;7370640;19;20171;-75
2023/07/28 12:05:12;;;;;;;1.30;1.15;;;23.50;99.90;;;;;;7375516;19;20139;-77
2023/07/28 12:07:38;;;;;;;0.90;0.82;;;23.30;99.90;;;;;;7372967;19;20605;-76
2023/07/28 12:10:06;;;;;;;1.25;0.88;;;23.20;99.90;;;;;;7378462;19;20142;-76
2023/07/28 12:12:43;;;;;;;1.23;1.02;;;23.30;99.90;;;;;;7382441;19;20143;-76
2023/07/28 12:15:21;;;;;;;1.48;1.00;;;23.20;99.90;;;;;;7382304;19;20146;-78
2023/07/28 12:18:13;;;;;;;1.63;1.20;;;22.80;99.90;;;;;;7378850;19;20158;-78
2023/07/28 12:20:41;;;;;;;2.65;1.98;;;22.70;99.90;;;;;;7373232;19;20908;-78
2023/07/28 12:23:09;;;;;;;1.60;1.40;;;22.60;99.90;;;;;;7375762;19;20172;-78
2023/07/28 12:25:36;;;;;;;1.60;1.50;;;22.50;99.90;;;;;;7381400;19;20203;-78
2023/07/28 12:28:06;;;;;;;3.28;1.73;;;22.60;99.90;;;;;;7380690;19;20654;-78
2023/07/28 12:30:35;;;;;;;2.28;1.70;;;22.70;99.90;;;;;;7380005;19;20147;-79
2023/07/28 12:33:01;;;;;;;3.75;1.80;;;22.60;99.90;;;;;;7379943;19;20645;-79
2023/07/28 12:35:30;;;;;;;2.50;1.55;;;22.70;99.90;;;;;;7380315;19;20150;-79
2023/07/28 12:38:00;;;;;;;1.45;1.33;;;22.70;99.90;;;;;;7378465;19;20147;-77
2023/07/28 12:40:28;;;;;;;1.98;1.58;;;22.60;99.90;;;;;;7378863;19;20153;-77
2023/07/28 12:42:54;;;;;;;5.05;1.77;;;22.70;99.90;;;;;;7381483;19;20213;-78
2023/07/28 12:45:21;;;;;;;2.55;1.85;;;22.80;99.90;;;;;;7381427;19;20131;-78
2023/07/28 12:47:47;;;;;;;2.13;1.30;;;22.90;99.90;;;;;;7378352;19;20150;-78